Atwood, Alabama
Current Conditions -  °F | °C
As of 4:24 AM on Monday 26 Jan 2015 (Local Time) from K1M4 Reporting Station
Light Rain Light Rain  
Wind Chill: 30°   Ceiling: NA
Heat Index: 37°   Visibility: 3mi
Dew Point: 37°   Wind: 10mph
Humidity: 100%   Direction: 320°NW
Pressure: 29.92"   Gusts: 20mph
Location:  34.3479°N, 87.9692°W
Report Text: K1M4 261024Z AUTO 32009G17KT 3SM -RA BR 03/03 A2992 RMK AO2 P0001 $
Loading
Personal Weather Stations






























Interactive Weather Map New forecast layout! Learn more

10-Day Weather Forecast

Advertisements
Track Severe Weather on mobile